Forside
METAR-TAF:

METAR-TAF

Lufthavne :

Chongqing Jiangbei International Airport

Chongqing, Kina

Breddekreds: 29-31N, længdekreds: 106-29E, højde: 351 m

Aktuelle vejr

Denne rapport blev lavet for 11 minutter siden, kl. 17:00 UTC
Vind 6 kt fra østsydøst
Temperatur 29°C
Fugtighed 66%
Tryk 1002 hPa
Sigt 10 km eller mere
ingen skyer under 1500m og ingen cumulonimbus

METAR: ZUCK 251700Z 11003MPS CAVOK 29/22 Q1002 NOSIG

Tid: 01:11 (17:11 UTC)

Vejrudsigter

Denne rapport blev lavet for 8 timer og 1 minutter siden, kl. 09:10 UTC
Foreløbig gælder fra 25 på 12 UTC til 26 på 12 UTC
Vind 12 kt fra sydsydøst
Sigt: 6000 m
Spredte skyer i en højde af 4000 ft

TAF: ZUCK 250910Z 2512/2612 15006MPS 6000 SCT040 TX36/2607Z TN27/2522Z

Vejrobservationer og prognoser fra mere end 4000 lufthavne (METAR og TAF).

De gule og røde prikker repræsenterer de meteorologiske stationer.

Flyt musen over at se navnet på stationen.

Så klik over at se vejr observationer og prognoser.

At skifte det kort: Klik på de grønne knapper med et sort kors for at zoome ind; på den grønne knap med en bindestreg for at zoome ud; eller på de grønne pile for tilstødende kort.


METAR-TAF: